Time;durP1;ratioP1;P1;durP2;ratioP2;P2;SDS_P1;SDS_P2;PMS_P1;PMS_P2;Temp;Humidity;BMP_temperature;BMP_pressure;BME280_temperature;BME280_humidity;BME280_pressure;Samples;Min_cycle;Max_cycle;Signal;HPM_P1;HPM_P2
2021/04/02 00:00:17;;;;;;;4.05;1.20;;;3.30;99.90;;;;;;4979934;28;20288;-66
2021/04/02 00:02:44;;;;;;;1.88;0.57;;;3.20;99.90;;;;;;4982473;28;20600;-64
2021/04/02 00:05:17;;;;;;;1.92;1.17;;;3.20;99.90;;;;;;4981365;28;20146;-64
2021/04/02 00:07:45;;;;;;;3.75;0.50;;;3.20;99.90;;;;;;4980075;28;20105;-63
2021/04/02 00:10:15;;;;;;;0.80;0.55;;;3.20;99.90;;;;;;4977663;28;20054;-63
2021/04/02 00:12:47;;;;;;;0.50;0.35;;;3.20;99.90;;;;;;4982333;28;20120;-64
2021/04/02 00:15:16;;;;;;;1.17;0.57;;;3.20;99.90;;;;;;4980083;28;20050;-63
2021/04/02 00:17:44;;;;;;;1.98;0.43;;;3.20;99.90;;;;;;4976716;28;20062;-64
2021/04/02 00:20:15;;;;;;;0.20;0.20;;;3.20;99.90;;;;;;4979108;28;20415;-62
2021/04/02 00:22:44;;;;;;;0.77;0.40;;;3.20;99.90;;;;;;4984780;28;20093;-64
2021/04/02 00:25:12;;;;;;;0.38;0.30;;;3.30;99.90;;;;;;4979821;28;20084;-64
2021/04/02 00:27:39;;;;;;;1.85;0.50;;;3.20;99.90;;;;;;4980900;28;20062;-64
2021/04/02 00:30:20;;;;;;;1.63;0.20;;;3.30;99.90;;;;;;4978276;28;20047;-63
2021/04/02 00:32:47;;;;;;;0.70;0.40;;;3.30;99.90;;;;;;4981363;28;20055;-68
2021/04/02 00:35:16;;;;;;;1.48;0.60;;;3.30;99.90;;;;;;4981664;28;20050;-64
2021/04/02 00:37:42;;;;;;;1.17;0.30;;;3.30;99.90;;;;;;4981859;28;20142;-67
2021/04/02 00:40:17;;;;;;;0.68;0.20;;;3.30;99.90;;;;;;4976984;28;20057;-67
2021/04/02 00:42:45;;;;;;;1.38;0.60;;;3.30;99.90;;;;;;4977344;28;20085;-66
2021/04/02 00:45:12;;;;;;;1.10;0.40;;;3.30;99.90;;;;;;4979570;28;20046;-64
2021/04/02 00:47:39;;;;;;;1.42;0.32;;;3.30;99.90;;;;;;4976306;28;20520;-65
2021/04/02 00:50:10;;;;;;;3.17;0.40;;;3.20;99.90;;;;;;4990870;28;20109;-63
2021/04/02 00:52:37;;;;;;;1.85;0.50;;;3.30;99.90;;;;;;4980949;28;20074;-65
2021/04/02 00:55:04;;;;;;;0.40;0.30;;;3.20;99.90;;;;;;4978211;28;20220;-63
2021/04/02 00:57:33;;;;;;;1.13;0.30;;;3.20;99.90;;;;;;4981070;28;20054;-65
2021/04/02 01:00:00;;;;;;;2.10;0.30;;;3.20;99.90;;;;;;4991386;28;20559;-64
2021/04/02 01:02:27;;;;;;;1.40;0.40;;;3.20;99.90;;;;;;4976990;28;20436;-66
2021/04/02 01:04:54;;;;;;;3.20;0.40;;;3.10;99.90;;;;;;4976931;28;20128;-66
2021/04/02 01:07:21;;;;;;;2.13;0.47;;;3.20;99.90;;;;;;4996111;28;20054;-65
2021/04/02 01:09:48;;;;;;;2.00;0.30;;;3.10;99.90;;;;;;4977614;28;20101;-66
2021/04/02 01:12:14;;;;;;;0.25;0.22;;;3.10;99.90;;;;;;4994125;28;20164;-65
2021/04/02 01:14:41;;;;;;;0.68;0.40;;;3.10;99.90;;;;;;4976659;28;20112;-63
2021/04/02 01:17:08;;;;;;;1.30;0.22;;;3.10;99.90;;;;;;4978759;28;20289;-65
2021/04/02 01:19:44;;;;;;;3.05;0.57;;;3.10;99.90;;;;;;4978218;28;20058;-63
2021/04/02 01:22:38;;;;;;;0.90;0.40;;;3.10;99.90;;;;;;4977184;28;20046;-63
2021/04/02 01:25:31;;;;;;;0.85;0.40;;;3.10;99.90;;;;;;4976777;28;20061;-62
2021/04/02 01:28:24;;;;;;;0.52;0.38;;;3.10;99.90;;;;;;4980174;28;20372;-64
2021/04/02 01:30:57;;;;;;;0.40;0.40;;;3.10;99.90;;;;;;4989954;28;20061;-62
2021/04/02 01:33:25;;;;;;;0.30;0.30;;;3.10;99.90;;;;;;4977409;28;20524;-63
2021/04/02 01:35:56;;;;;;;0.40;0.40;;;3.10;99.90;;;;;;4976384;28;20484;-62
2021/04/02 01:38:32;;;;;;;1.42;0.32;;;3.20;99.90;;;;;;4976504;28;20058;-64
2021/04/02 01:41:06;;;;;;;1.98;0.65;;;3.20;99.90;;;;;;4977164;28;20038;-65
2021/04/02 01:43:50;;;;;;;0.95;0.43;;;3.20;99.90;;;;;;4978700;28;20125;-68
2021/04/02 01:46:18;;;;;;;0.32;0.10;;;3.20;99.90;;;;;;4988517;28;20066;-62
2021/04/02 01:48:47;;;;;;;1.20;0.40;;;3.20;99.90;;;;;;4978016;28;20144;-66
2021/04/02 01:51:15;;;;;;;2.10;1.85;;;3.20;99.90;;;;;;4976503;28;20457;-62
2021/04/02 01:53:47;;;;;;;1.35;0.20;;;3.20;99.90;;;;;;4978261;28;20046;-64
2021/04/02 01:56:17;;;;;;;1.20;0.60;;;3.20;99.90;;;;;;4988646;28;20062;-63
2021/04/02 01:58:45;;;;;;;0.57;0.40;;;3.30;99.90;;;;;;4978727;28;20054;-65
2021/04/02 02:01:17;;;;;;;0.80;0.50;;;3.20;99.90;;;;;;4980163;28;20046;-63
2021/04/02 02:03:50;;;;;;;1.75;0.40;;;3.30;99.90;;;;;;4981148;28;20142;-65
2021/04/02 02:06:17;;;;;;;0.95;0.70;;;3.20;99.90;;;;;;4977221;28;20154;-62
2021/04/02 02:09:21;;;;;;;1.88;0.22;;;3.20;99.90;;;;;;4979591;28;20084;-64
2021/04/02 02:11:52;;;;;;;3.22;0.73;;;3.20;99.90;;;;;;4994527;28;20506;-63
2021/04/02 02:14:29;;;;;;;0.35;0.30;;;3.20;99.90;;;;;;4989700;28;20061;-63
2021/04/02 02:17:09;;;;;;;2.08;0.32;;;3.20;99.90;;;;;;4992461;28;20161;-63
2021/04/02 02:19:39;;;;;;;2.27;0.50;;;3.20;99.90;;;;;;4995269;28;20053;-66
2021/04/02 02:22:09;;;;;;;0.98;0.50;;;3.10;99.90;;;;;;4976759;28;20524;-63
2021/04/02 02:24:43;;;;;;;0.73;0.65;;;3.10;99.90;;;;;;4977780;28;20045;-66
2021/04/02 02:27:11;;;;;;;1.10;0.57;;;3.10;99.90;;;;;;4972245;28;20109;-65
2021/04/02 02:29:38;;;;;;;0.60;0.35;;;3.10;99.90;;;;;;4980205;28;20042;-67
2021/04/02 02:32:06;;;;;;;0.40;0.30;;;3.10;99.90;;;;;;4991509;28;20496;-66
2021/04/02 02:34:34;;;;;;;0.82;0.32;;;3.10;99.90;;;;;;4973586;28;20055;-66
2021/04/02 02:37:03;;;;;;;0.43;0.38;;;3.10;99.90;;;;;;4993397;28;20074;-67
2021/04/02 02:39:38;;;;;;;2.00;0.45;;;3.10;99.90;;;;;;4994408;28;20097;-66
2021/04/02 02:42:06;;;;;;;0.65;0.40;;;3.10;99.90;;;;;;4975423;28;20047;-67
2021/04/02 02:44:33;;;;;;;1.17;0.55;;;3.10;99.90;;;;;;4990719;28;20066;-64
2021/04/02 02:47:07;;;;;;;1.25;0.38;;;3.10;99.90;;;;;;4977196;28;20648;-65
2021/04/02 02:49:40;;;;;;;1.67;0.80;;;3.10;99.90;;;;;;4982056;28;20496;-63
2021/04/02 02:52:08;;;;;;;1.48;0.47;;;3.10;99.90;;;;;;4974986;28;20096;-64
2021/04/02 02:54:36;;;;;;;0.22;0.22;;;3.10;99.90;;;;;;4978952;28;21106;-63
2021/04/02 02:57:04;;;;;;;1.42;0.40;;;3.20;99.90;;;;;;4978517;28;20460;-64
2021/04/02 02:59:33;;;;;;;1.60;0.47;;;3.20;99.90;;;;;;4976953;28;20115;-65
2021/04/02 03:02:06;;;;;;;0.98;0.60;;;3.20;99.90;;;;;;4990676;28;20508;-62
2021/04/02 03:04:36;;;;;;;0.55;0.20;;;3.30;99.90;;;;;;4973807;28;20058;-64
2021/04/02 03:07:06;;;;;;;1.38;0.80;;;3.40;99.90;;;;;;4988362;28;20074;-66
2021/04/02 03:09:34;;;;;;;1.10;0.40;;;3.40;99.90;;;;;;4982024;28;20406;-62
2021/04/02 03:12:04;;;;;;;1.83;0.63;;;3.40;99.90;;;;;;4978975;28;20069;-62
2021/04/02 03:14:35;;;;;;;0.95;0.40;;;3.40;99.90;;;;;;4981929;28;20239;-66
2021/04/02 03:17:05;;;;;;;1.77;0.63;;;3.40;99.90;;;;;;4980125;28;20372;-64
2021/04/02 03:19:38;;;;;;;2.90;0.52;;;3.40;99.90;;;;;;4987452;28;20045;-64
2021/04/02 03:22:14;;;;;;;0.73;0.30;;;3.50;99.90;;;;;;4992597;28;20046;-66
2021/04/02 03:24:49;;;;;;;2.85;1.48;;;3.50;99.90;;;;;;4998768;28;20053;-65
2021/04/02 03:27:22;;;;;;;1.95;0.30;;;3.50;99.90;;;;;;4976150;28;20066;-62
2021/04/02 03:29:49;;;;;;;1.23;0.95;;;3.50;99.90;;;;;;4982817;28;20081;-63
2021/04/02 03:32:18;;;;;;;6.03;0.75;;;3.50;99.90;;;;;;4978495;28;20093;-62
2021/04/02 03:34:47;;;;;;;2.63;0.45;;;3.50;99.90;;;;;;4981208;28;20066;-64
2021/04/02 03:37:19;;;;;;;3.50;0.82;;;3.50;99.90;;;;;;4990852;28;20054;-66
2021/04/02 03:39:54;;;;;;;0.73;0.70;;;3.50;99.90;;;;;;4989364;28;20045;-63
2021/04/02 03:42:25;;;;;;;4.13;0.57;;;3.60;99.90;;;;;;4977189;28;20218;-66
2021/04/02 03:44:54;;;;;;;0.95;0.60;;;3.60;99.90;;;;;;4979394;28;20082;-63
2021/04/02 03:47:21;;;;;;;0.63;0.50;;;3.60;99.90;;;;;;4978920;28;20153;-64
2021/04/02 03:50:01;;;;;;;2.67;0.90;;;3.60;99.90;;;;;;4981410;28;20050;-63
2021/04/02 03:52:36;;;;;;;2.70;0.80;;;3.50;99.90;;;;;;4978792;28;20070;-65
2021/04/02 03:55:04;;;;;;;2.13;0.85;;;3.50;99.90;;;;;;5002415;28;20392;-63
2021/04/02 03:57:35;;;;;;;4.28;1.10;;;3.50;99.90;;;;;;4994859;28;20054;-66
2021/04/02 04:00:18;;;;;;;2.38;0.50;;;3.50;99.90;;;;;;4995348;28;20046;-63
2021/04/02 04:02:56;;;;;;;4.22;0.63;;;3.50;99.90;;;;;;4978996;28;20090;-63
2021/04/02 04:05:25;;;;;;;1.58;0.30;;;3.50;99.90;;;;;;4993808;28;20046;-65
2021/04/02 04:07:53;;;;;;;1.70;0.50;;;3.50;99.90;;;;;;4976533;28;20054;-66
2021/04/02 04:10:21;;;;;;;0.90;0.40;;;3.50;99.90;;;;;;4975399;28;20468;-63
2021/04/02 04:12:51;;;;;;;0.77;0.40;;;3.50;99.90;;;;;;4992169;28;20288;-65
2021/04/02 04:15:18;;;;;;;4.03;0.77;;;3.50;99.90;;;;;;4981976;28;20062;-64
2021/04/02 04:17:48;;;;;;;3.72;0.47;;;3.50;99.90;;;;;;4982065;28;20125;-64
2021/04/02 04:20:19;;;;;;;4.22;0.77;;;3.50;99.90;;;;;;4982450;28;20054;-63
2021/04/02 04:22:57;;;;;;;5.05;1.08;;;3.50;99.90;;;;;;4977201;28;20065;-67
2021/04/02 04:25:25;;;;;;;2.13;0.80;;;3.50;99.90;;;;;;4982874;28;20054;-66
2021/04/02 04:27:55;;;;;;;3.05;0.50;;;3.50;99.90;;;;;;4995557;28;20057;-68
2021/04/02 04:30:24;;;;;;;6.25;1.00;;;3.50;99.90;;;;;;4977807;28;20117;-63
2021/04/02 04:32:50;;;;;;;1.33;1.05;;;3.50;99.90;;;;;;4981341;28;20500;-67
2021/04/02 04:35:19;;;;;;;1.30;0.60;;;3.50;99.90;;;;;;4981245;28;20493;-64
2021/04/02 04:37:47;;;;;;;0.85;0.52;;;3.50;99.90;;;;;;4981223;28;20129;-64
2021/04/02 04:40:19;;;;;;;2.22;0.73;;;3.50;99.90;;;;;;4979148;28;20123;-66
2021/04/02 04:42:47;;;;;;;2.90;0.60;;;3.50;99.90;;;;;;5010508;28;21291;-63
2021/04/02 04:45:18;;;;;;;1.73;0.80;;;3.50;99.90;;;;;;4964060;28;20054;-62
2021/04/02 04:47:45;;;;;;;1.23;0.57;;;3.50;99.90;;;;;;4983630;28;20745;-64
2021/04/02 04:50:13;;;;;;;2.33;1.08;;;3.50;99.90;;;;;;4979234;28;20061;-63
2021/04/02 04:52:48;;;;;;;3.25;0.85;;;3.60;99.90;;;;;;4977766;28;20050;-62
2021/04/02 04:55:16;;;;;;;3.40;0.70;;;3.50;99.90;;;;;;4979610;28;20065;-65
2021/04/02 04:57:44;;;;;;;3.38;0.80;;;3.60;99.90;;;;;;4979853;28;20687;-62
2021/04/02 05:00:12;;;;;;;1.67;1.20;;;3.60;99.90;;;;;;4978886;28;20691;-62
2021/04/02 05:02:43;;;;;;;2.67;0.57;;;3.60;99.90;;;;;;4981184;28;20073;-63
2021/04/02 05:05:17;;;;;;;2.40;1.15;;;3.60;99.90;;;;;;4981565;28;20413;-63
2021/04/02 05:07:45;;;;;;;4.35;0.52;;;3.60;99.90;;;;;;4981085;28;20472;-67
2021/04/02 05:10:12;;;;;;;3.30;1.33;;;3.60;99.90;;;;;;4978409;28;20455;-66
2021/04/02 05:12:41;;;;;;;4.95;0.93;;;3.60;99.90;;;;;;4980234;28;20105;-66
2021/04/02 05:15:09;;;;;;;2.60;0.70;;;3.60;99.90;;;;;;4977603;28;20043;-64
2021/04/02 05:17:37;;;;;;;3.97;0.80;;;3.60;99.90;;;;;;4981033;28;20057;-67
2021/04/02 05:20:04;;;;;;;1.90;0.77;;;3.60;99.90;;;;;;4978961;28;20047;-63
2021/04/02 05:22:31;;;;;;;0.57;0.55;;;3.60;99.90;;;;;;4983956;28;20104;-65
2021/04/02 05:24:57;;;;;;;2.28;1.45;;;3.60;99.90;;;;;;4991451;28;20057;-64
2021/04/02 05:27:24;;;;;;;2.60;2.40;;;3.60;99.90;;;;;;4981738;28;20058;-63
2021/04/02 05:29:50;;;;;;;1.75;1.00;;;3.60;99.90;;;;;;4978161;28;20054;-64
2021/04/02 05:32:16;;;;;;;6.18;1.75;;;3.70;99.90;;;;;;4976200;28;20038;-62
2021/04/02 05:34:43;;;;;;;1.02;0.73;;;3.70;99.90;;;;;;4978689;28;20593;-62
2021/04/02 05:37:09;;;;;;;1.52;0.70;;;3.70;99.90;;;;;;4980030;28;20524;-65
2021/04/02 05:39:36;;;;;;;1.92;1.02;;;3.70;99.90;;;;;;4978034;28;20127;-66
2021/04/02 05:42:06;;;;;;;1.42;0.93;;;3.80;99.90;;;;;;4982939;28;20073;-62
2021/04/02 05:44:37;;;;;;;3.28;0.68;;;3.80;99.90;;;;;;4979321;28;20582;-68
2021/04/02 05:47:09;;;;;;;0.85;0.70;;;3.90;99.90;;;;;;4982104;28;20046;-64
2021/04/02 05:49:37;;;;;;;1.55;0.80;;;3.90;99.90;;;;;;4977852;28;20101;-63
2021/04/02 05:52:04;;;;;;;0.82;0.70;;;3.90;99.90;;;;;;4975931;28;20054;-63
2021/04/02 05:54:39;;;;;;;4.47;1.35;;;4.00;99.90;;;;;;4976498;28;20062;-65
2021/04/02 05:57:06;;;;;;;1.75;1.10;;;4.00;99.90;;;;;;4975246;28;20051;-62
2021/04/02 05:59:33;;;;;;;2.20;2.10;;;4.00;99.90;;;;;;4991408;28;20065;-62
2021/04/02 06:02:00;;;;;;;1.10;0.85;;;4.10;99.90;;;;;;4978882;28;20450;-66
2021/04/02 06:04:26;;;;;;;4.13;0.77;;;4.10;99.90;;;;;;4977178;28;20058;-64
2021/04/02 06:06:52;;;;;;;1.17;0.88;;;4.20;99.90;;;;;;4978223;28;20106;-63
2021/04/02 06:09:20;;;;;;;1.80;0.65;;;4.20;99.90;;;;;;4979294;28;20054;-63
2021/04/02 06:11:46;;;;;;;1.27;0.60;;;4.20;99.90;;;;;;4979290;28;20058;-62
2021/04/02 06:14:13;;;;;;;3.80;0.77;;;4.20;99.90;;;;;;4975167;28;20132;-63
2021/04/02 06:16:46;;;;;;;20.95;2.83;;;4.20;99.90;;;;;;4976829;28;20523;-63
2021/04/02 06:19:12;;;;;;;5.15;0.65;;;4.30;99.90;;;;;;4978079;28;20192;-67
2021/04/02 06:21:48;;;;;;;5.20;1.35;;;4.20;99.90;;;;;;4977738;28;20602;-65
2021/04/02 06:24:40;;;;;;;1.23;0.50;;;4.30;99.90;;;;;;4978352;28;20053;-66
2021/04/02 06:27:09;;;;;;;0.60;0.60;;;4.30;99.90;;;;;;4977124;28;20042;-63
2021/04/02 06:29:43;;;;;;;0.95;0.50;;;4.40;99.90;;;;;;4981570;28;20649;-66
2021/04/02 06:32:31;;;;;;;5.43;1.35;;;4.40;99.90;;;;;;4975491;28;20477;-65
2021/04/02 06:35:10;;;;;;;2.25;0.80;;;4.40;99.90;;;;;;4976522;28;20565;-64
2021/04/02 06:37:37;;;;;;;1.87;0.93;;;4.50;99.90;;;;;;4992092;28;20160;-63
2021/04/02 06:40:19;;;;;;;2.63;0.80;;;4.50;99.90;;;;;;4977050;28;20054;-65
2021/04/02 06:42:46;;;;;;;1.45;0.80;;;4.60;99.90;;;;;;4978108;28;20089;-63
2021/04/02 06:45:14;;;;;;;1.17;0.85;;;4.60;99.90;;;;;;4973042;28;20070;-62
2021/04/02 06:47:42;;;;;;;2.20;2.00;;;4.60;99.90;;;;;;4975694;28;20503;-63
2021/04/02 06:50:17;;;;;;;2.35;0.90;;;4.70;99.90;;;;;;4975283;28;20053;-63
2021/04/02 06:52:50;;;;;;;2.05;1.10;;;4.80;99.90;;;;;;4979279;28;20915;-66
2021/04/02 06:55:18;;;;;;;1.00;0.93;;;4.90;99.90;;;;;;4975766;28;20050;-65
2021/04/02 06:57:53;;;;;;;2.70;0.95;;;5.00;99.90;;;;;;4977333;28;20062;-63
2021/04/02 07:00:22;;;;;;;2.70;0.80;;;5.10;99.90;;;;;;4979192;28;20470;-64
2021/04/02 07:02:50;;;;;;;1.52;0.85;;;5.00;99.90;;;;;;4978218;28;20436;-64
2021/04/02 07:05:19;;;;;;;1.58;0.63;;;5.00;99.90;;;;;;4978616;28;20350;-63
2021/04/02 07:07:52;;;;;;;0.70;0.50;;;5.10;99.90;;;;;;4977743;28;20061;-65
2021/04/02 07:10:20;;;;;;;1.10;1.00;;;5.10;99.90;;;;;;4977626;28;20062;-64
2021/04/02 07:12:51;;;;;;;1.80;0.50;;;5.10;99.90;;;;;;4978317;28;20427;-63
2021/04/02 07:15:18;;;;;;;1.17;1.08;;;5.10;99.90;;;;;;4977193;28;20046;-64
2021/04/02 07:17:46;;;;;;;0.80;0.80;;;5.20;99.90;;;;;;4978283;28;20058;-63
2021/04/02 07:20:13;;;;;;;2.75;0.77;;;5.20;99.90;;;;;;4971682;28;20054;-64
2021/04/02 07:22:41;;;;;;;1.45;0.70;;;5.30;99.90;;;;;;4980017;28;20071;-65
2021/04/02 07:25:10;;;;;;;5.40;1.20;;;5.30;99.90;;;;;;4979199;28;20065;-64
2021/04/02 07:27:37;;;;;;;1.80;0.90;;;5.30;99.90;;;;;;4977853;28;20043;-68
2021/04/02 07:30:07;;;;;;;1.25;0.50;;;5.30;99.90;;;;;;4978521;28;20366;-65
2021/04/02 07:32:38;;;;;;;2.90;0.77;;;5.20;99.90;;;;;;4977317;28;20049;-65
2021/04/02 07:35:05;;;;;;;;;;;5.20;99.90;;;;;;4977467;28;20073;-63
2021/04/02 07:37:37;;;;;;;1.30;1.00;;;5.10;99.90;;;;;;4976900;28;20539;-62
2021/04/02 07:40:08;;;;;;;7.47;1.25;;;5.10;99.90;;;;;;4976009;28;20215;-63
2021/04/02 07:42:35;;;;;;;3.03;1.00;;;5.00;99.90;;;;;;4976337;28;20102;-63
2021/04/02 07:45:04;;;;;;;2.33;0.70;;;5.00;99.90;;;;;;4979111;28;20164;-62
2021/04/02 07:47:30;;;;;;;2.20;0.60;;;4.90;99.90;;;;;;4977861;28;20058;-67
2021/04/02 07:50:02;;;;;;;1.80;1.17;;;4.90;99.90;;;;;;4979842;28;20302;-64
2021/04/02 07:52:38;;;;;;;2.08;1.00;;;4.90;99.90;;;;;;4977686;28;20069;-66
2021/04/02 07:55:16;;;;;;;1.75;0.82;;;4.90;99.90;;;;;;4981165;28;20126;-66
2021/04/02 07:57:57;;;;;;;5.25;1.35;;;4.90;99.90;;;;;;4981407;28;20054;-63
2021/04/02 08:00:26;;;;;;;4.07;1.05;;;4.90;99.90;;;;;;4974888;28;20133;-66
2021/04/02 08:03:05;;;;;;;1.38;0.70;;;5.00;99.90;;;;;;4981053;28;20050;-64
2021/04/02 08:05:32;;;;;;;2.20;0.98;;;5.10;99.90;;;;;;4980599;28;20042;-67
2021/04/02 08:07:58;;;;;;;2.03;0.85;;;5.10;99.90;;;;;;4981047;28;20346;-67
2021/04/02 08:10:25;;;;;;;2.08;0.93;;;5.10;99.90;;;;;;4982512;28;20112;-68
2021/04/02 08:12:52;;;;;;;1.20;1.10;;;5.20;99.90;;;;;;4978544;28;20130;-66
2021/04/02 08:15:19;;;;;;;5.32;1.10;;;5.20;99.90;;;;;;4980757;28;20053;-62
2021/04/02 08:17:48;;;;;;;2.13;1.95;;;5.20;99.90;;;;;;4981359;28;20074;-63
2021/04/02 08:20:20;;;;;;;2.17;0.73;;;5.10;99.90;;;;;;4979028;28;20160;-64
2021/04/02 08:22:51;;;;;;;2.85;1.20;;;5.20;99.90;;;;;;4978417;28;20083;-62
2021/04/02 08:25:18;;;;;;;;;;;5.20;99.90;;;;;;4981967;28;20050;-64
2021/04/02 08:27:46;;;;;;;3.13;0.70;;;5.20;99.90;;;;;;4980720;28;19925;-66
2021/04/02 08:30:16;;;;;;;3.13;0.75;;;5.20;99.90;;;;;;4979237;28;20058;-62
2021/04/02 08:32:45;;;;;;;1.63;0.80;;;5.10;99.90;;;;;;4978340;28;20412;-67
2021/04/02 08:35:14;;;;;;;0.88;0.82;;;5.20;99.90;;;;;;4982132;28;20481;-64
2021/04/02 08:38:02;;;;;;;4.13;0.93;;;5.20;99.90;;;;;;4980961;28;20141;-63
2021/04/02 08:40:29;;;;;;;1.63;0.80;;;5.20;99.90;;;;;;4979360;28;20424;-62
2021/04/02 08:43:12;;;;;;;19.02;1.65;;;5.20;99.90;;;;;;4980729;28;20132;-65
2021/04/02 08:45:58;;;;;;;3.15;0.93;;;5.30;99.90;;;;;;4979933;28;20054;-64
2021/04/02 08:48:25;;;;;;;4.82;0.60;;;5.50;99.90;;;;;;4977931;28;20058;-64
2021/04/02 08:50:52;;;;;;;1.88;0.60;;;5.50;99.90;;;;;;4982269;28;20077;-65
2021/04/02 08:53:18;;;;;;;0.50;0.40;;;5.60;99.90;;;;;;4979455;28;20062;-67
2021/04/02 08:55:45;;;;;;;3.53;0.98;;;5.70;99.90;;;;;;4983438;28;20046;-68
2021/04/02 08:58:13;;;;;;;2.88;1.15;;;5.60;99.90;;;;;;4978893;28;20490;-63
2021/04/02 09:00:40;;;;;;;1.50;0.73;;;5.60;99.90;;;;;;4976876;28;20563;-65
2021/04/02 09:03:07;;;;;;;3.80;1.17;;;5.50;99.90;;;;;;4979740;28;20080;-67
2021/04/02 09:05:34;;;;;;;4.15;0.82;;;5.60;99.90;;;;;;4978555;28;20138;-65
2021/04/02 09:08:00;;;;;;;1.10;0.90;;;5.70;99.90;;;;;;4978770;28;20050;-68
2021/04/02 09:10:27;;;;;;;3.13;1.42;;;5.70;99.90;;;;;;4979128;28;20439;-66
2021/04/02 09:12:55;;;;;;;1.45;1.02;;;5.80;99.90;;;;;;4979519;28;20126;-63
2021/04/02 09:15:24;;;;;;;1.42;0.88;;;5.80;99.90;;;;;;4976214;28;20054;-64
2021/04/02 09:17:50;;;;;;;4.97;1.73;;;6.00;99.90;;;;;;4981078;28;20637;-65
2021/04/02 09:20:17;;;;;;;5.18;1.10;;;6.00;99.90;;;;;;4979176;28;20436;-65
2021/04/02 09:22:45;;;;;;;1.58;0.90;;;6.10;99.90;;;;;;4979665;28;20065;-65
2021/04/02 09:25:14;;;;;;;2.92;0.70;;;6.10;99.90;;;;;;4985075;28;20058;-62
2021/04/02 09:27:41;;;;;;;1.20;0.77;;;6.00;99.90;;;;;;4980185;28;20113;-64
2021/04/02 09:30:08;;;;;;;1.27;1.05;;;6.00;99.90;;;;;;4978728;28;20050;-63
2021/04/02 09:32:35;;;;;;;3.42;0.80;;;5.90;99.90;;;;;;4979090;28;20721;-65
2021/04/02 09:35:05;;;;;;;0.85;0.70;;;5.90;99.90;;;;;;4979694;28;20046;-63
2021/04/02 09:37:34;;;;;;;2.17;0.75;;;5.70;99.90;;;;;;4980720;28;20065;-62
2021/04/02 09:40:08;;;;;;;3.45;1.15;;;5.80;99.90;;;;;;4979131;28;20424;-63
2021/04/02 09:42:36;;;;;;;4.55;1.05;;;5.80;99.90;;;;;;4978293;28;20046;-65
2021/04/02 09:45:12;;;;;;;2.25;1.00;;;5.90;99.90;;;;;;4979879;28;20054;-63
2021/04/02 09:47:48;;;;;;;10.40;1.08;;;6.00;99.90;;;;;;4979450;28;20106;-63
2021/04/02 09:50:17;;;;;;;5.53;1.17;;;6.00;99.90;;;;;;4979432;28;20050;-65
2021/04/02 09:52:45;;;;;;;1.23;1.00;;;6.00;99.90;;;;;;4980181;28;20128;-63
2021/04/02 09:55:13;;;;;;;1.17;0.65;;;6.10;99.90;;;;;;4979795;28;20054;-63
2021/04/02 09:57:40;;;;;;;1.63;1.27;;;6.10;99.90;;;;;;4978958;28;20073;-63
2021/04/02 10:00:08;;;;;;;2.88;0.90;;;6.10;99.90;;;;;;4979166;28;20046;-62
2021/04/02 10:02:38;;;;;;;4.78;1.50;;;5.90;99.90;;;;;;4978653;28;20054;-63
2021/04/02 10:05:06;;;;;;;1.23;0.77;;;5.90;99.90;;;;;;4982577;28;20061;-62
2021/04/02 10:07:33;;;;;;;3.33;0.90;;;5.90;99.90;;;;;;4977855;28;20074;-67
2021/04/02 10:10:00;;;;;;;1.58;1.20;;;5.90;99.90;;;;;;4978947;28;20051;-63
2021/04/02 10:12:27;;;;;;;1.30;1.15;;;5.90;99.90;;;;;;4979872;28;20136;-64
2021/04/02 10:14:54;;;;;;;1.10;1.00;;;5.80;99.90;;;;;;4976407;28;20519;-66
2021/04/02 10:17:25;;;;;;;3.45;0.95;;;6.00;99.90;;;;;;4979577;28;20050;-64
2021/04/02 10:19:51;;;;;;;3.63;1.55;;;5.90;99.90;;;;;;4979892;28;20104;-64
2021/04/02 10:22:18;;;;;;;2.97;1.20;;;5.80;99.90;;;;;;4978201;28;20508;-66
2021/04/02 10:24:44;;;;;;;3.10;0.90;;;5.70;99.90;;;;;;4979174;28;20785;-63
2021/04/02 10:27:11;;;;;;;5.32;0.90;;;5.80;99.90;;;;;;4979083;28;20065;-64
2021/04/02 10:29:38;;;;;;;2.85;1.10;;;5.80;99.90;;;;;;4978780;28;20038;-65
2021/04/02 10:32:05;;;;;;;3.95;1.08;;;5.90;99.90;;;;;;4982508;28;20069;-66
2021/04/02 10:34:31;;;;;;;1.90;1.15;;;6.10;99.90;;;;;;4979901;28;20046;-66
2021/04/02 10:36:57;;;;;;;4.20;1.17;;;6.10;99.90;;;;;;4979687;28;20050;-64
2021/04/02 10:39:24;;;;;;;1.48;0.90;;;6.30;99.90;;;;;;4978500;28;20080;-63
2021/04/02 10:41:50;;;;;;;2.65;1.35;;;6.20;99.90;;;;;;4980779;28;20428;-66
2021/04/02 10:44:18;;;;;;;1.00;0.77;;;6.20;99.90;;;;;;4976637;28;20202;-65
2021/04/02 10:46:45;;;;;;;1.23;0.93;;;6.30;99.90;;;;;;4976629;28;20109;-65
2021/04/02 10:49:11;;;;;;;1.83;1.00;;;6.30;99.90;;;;;;4979033;28;20054;-64
2021/04/02 10:51:38;;;;;;;1.02;0.55;;;6.30;99.90;;;;;;4975372;28;20172;-64
2021/04/02 10:54:04;;;;;;;3.40;1.20;;;6.20;99.90;;;;;;4975424;28;20566;-66
2021/04/02 10:56:32;;;;;;;0.85;0.75;;;6.10;99.90;;;;;;4980065;28;20054;-64
2021/04/02 10:58:59;;;;;;;2.35;1.25;;;6.10;99.90;;;;;;4976890;28;20392;-66
2021/04/02 11:01:26;;;;;;;1.75;0.80;;;6.30;99.90;;;;;;4984615;28;20095;-65
2021/04/02 11:03:53;;;;;;;1.33;0.70;;;6.40;99.90;;;;;;4977562;28;20046;-66
2021/04/02 11:06:19;;;;;;;3.25;0.70;;;6.60;99.90;;;;;;4975637;28;20077;-64
2021/04/02 11:08:46;;;;;;;1.40;1.20;;;6.70;99.90;;;;;;4976911;28;20050;-63
2021/04/02 11:11:12;;;;;;;3.25;1.13;;;6.60;99.90;;;;;;4979622;28;20054;-62
2021/04/02 11:13:39;;;;;;;2.40;0.70;;;6.70;99.90;;;;;;4978926;28;20054;-62
2021/04/02 11:16:06;;;;;;;2.38;0.90;;;6.60;99.90;;;;;;4973815;28;20389;-63
2021/04/02 11:18:32;;;;;;;2.55;0.88;;;6.60;99.90;;;;;;4979875;28;20046;-65
2021/04/02 11:20:59;;;;;;;5.00;1.00;;;6.60;99.90;;;;;;4974796;28;20071;-67
2021/04/02 11:23:26;;;;;;;1.35;0.85;;;6.50;99.90;;;;;;4990187;28;20173;-64
2021/04/02 11:25:55;;;;;;;3.95;1.85;;;6.60;99.90;;;;;;4979148;28;20466;-62
2021/04/02 11:28:22;;;;;;;3.15;1.48;;;6.50;99.90;;;;;;4976931;28;20120;-63
2021/04/02 11:30:48;;;;;;;1.65;1.55;;;6.50;99.90;;;;;;4981280;28;20053;-64
2021/04/02 11:33:15;;;;;;;5.80;0.98;;;6.50;99.90;;;;;;4986925;28;20058;-65
2021/04/02 11:35:42;;;;;;;3.65;1.00;;;6.60;99.90;;;;;;4981349;28;20058;-63
2021/04/02 11:38:08;;;;;;;13.73;2.20;;;6.70;99.90;;;;;;4975005;28;20051;-62
2021/04/02 11:40:37;;;;;;;2.17;0.60;;;6.80;99.90;;;;;;4982058;28;20050;-66
2021/04/02 11:43:04;;;;;;;2.38;1.88;;;7.00;99.90;;;;;;4979653;28;20042;-64
2021/04/02 11:45:31;;;;;;;2.58;0.82;;;7.00;99.90;;;;;;4980762;28;20154;-67
2021/04/02 11:47:57;;;;;;;5.63;1.60;;;7.00;99.90;;;;;;4981297;28;20054;-63
2021/04/02 11:50:24;;;;;;;1.23;0.73;;;6.70;99.90;;;;;;4979946;28;20137;-67
2021/04/02 11:52:52;;;;;;;1.58;0.88;;;6.50;99.90;;;;;;4983643;28;20053;-69
2021/04/02 11:55:19;;;;;;;3.78;1.20;;;6.50;99.90;;;;;;4980107;28;20069;-63
2021/04/02 11:57:45;;;;;;;2.10;1.10;;;6.60;99.90;;;;;;4982194;28;20053;-67
2021/04/02 12:00:17;;;;;;;3.67;3.10;;;6.50;99.90;;;;;;4978728;28;20054;-63
2021/04/02 12:02:44;;;;;;;2.22;0.90;;;6.50;99.90;;;;;;4982484;28;20054;-63
2021/04/02 12:05:11;;;;;;;2.95;0.93;;;6.50;99.90;;;;;;4981461;28;20401;-68
2021/04/02 12:07:38;;;;;;;1.80;0.90;;;6.70;99.90;;;;;;4982999;28;20153;-64
2021/04/02 12:10:05;;;;;;;3.90;1.00;;;6.60;99.90;;;;;;4978187;28;20371;-64
2021/04/02 12:12:32;;;;;;;1.58;0.98;;;6.70;99.90;;;;;;4982232;28;20042;-63
2021/04/02 12:14:59;;;;;;;2.90;1.10;;;6.80;99.90;;;;;;4977990;28;20647;-63
2021/04/02 12:17:25;;;;;;;2.60;0.90;;;6.70;99.90;;;;;;4982559;28;20521;-64
2021/04/02 12:19:52;;;;;;;3.78;1.00;;;6.70;99.90;;;;;;4980110;28;20073;-63
2021/04/02 12:22:19;;;;;;;4.53;1.10;;;6.70;99.90;;;;;;4980909;28;20345;-68
2021/04/02 12:24:45;;;;;;;4.38;0.88;;;6.80;99.90;;;;;;4980687;28;20766;-63
2021/04/02 12:27:12;;;;;;;2.50;0.95;;;6.70;99.90;;;;;;4982407;28;20461;-67
2021/04/02 12:29:38;;;;;;;2.70;0.90;;;6.60;99.90;;;;;;4980745;28;20054;-66
2021/04/02 12:32:05;;;;;;;4.97;0.85;;;6.70;99.90;;;;;;4979800;28;20243;-63
2021/04/02 12:34:32;;;;;;;2.15;1.40;;;6.90;99.90;;;;;;4980081;28;20062;-63
2021/04/02 12:36:58;;;;;;;2.05;0.75;;;7.10;99.90;;;;;;5012138;28;20539;-64
2021/04/02 12:39:25;;;;;;;3.92;1.15;;;7.10;99.90;;;;;;4983200;28;20046;-63
2021/04/02 12:41:51;;;;;;;3.53;0.95;;;7.10;99.90;;;;;;4979230;28;20050;-62
2021/04/02 12:44:18;;;;;;;4.05;1.27;;;7.10;99.90;;;;;;4982865;28;20054;-66
2021/04/02 12:46:44;;;;;;;3.28;1.10;;;6.90;99.90;;;;;;4979418;28;20081;-63
2021/04/02 12:49:11;;;;;;;2.88;1.27;;;7.00;99.90;;;;;;4984460;28;20085;-63
2021/04/02 12:51:38;;;;;;;1.10;0.80;;;7.10;99.90;;;;;;4979068;28;20113;-66
2021/04/02 12:54:05;;;;;;;6.63;1.38;;;7.10;99.90;;;;;;4980868;28;20619;-64
2021/04/02 12:56:32;;;;;;;1.67;0.88;;;7.00;99.90;;;;;;4981447;28;20125;-65
2021/04/02 12:58:58;;;;;;;3.90;0.98;;;7.20;99.90;;;;;;4978259;28;20054;-63
2021/04/02 13:01:25;;;;;;;0.98;0.63;;;7.60;99.90;;;;;;4979105;28;20065;-63
2021/04/02 13:03:51;;;;;;;0.90;0.70;;;7.80;99.90;;;;;;4979509;28;20067;-65
2021/04/02 13:06:17;;;;;;;2.08;0.70;;;7.90;99.90;;;;;;4978593;28;20061;-63
2021/04/02 13:08:44;;;;;;;2.05;1.15;;;8.10;99.90;;;;;;4981017;28;20449;-63